createdAt,value
2018-11-13T00:02:01.808Z,89.77
2018-11-13T00:04:31.664Z,90.00
2018-11-13T00:07:01.504Z,89.87
2018-11-13T00:09:31.434Z,89.29
2018-11-13T00:12:01.360Z,89.86
2018-11-13T00:14:31.267Z,89.67
2018-11-13T00:17:01.103Z,89.87
2018-11-13T00:19:30.952Z,90.49
2018-11-13T00:22:00.983Z,89.72
2018-11-13T00:24:31.045Z,89.97
2018-11-13T00:27:01.062Z,89.18
2018-11-13T00:29:36.950Z,89.46
2018-11-13T00:32:06.793Z,88.67
2018-11-13T00:34:36.711Z,88.89
2018-11-13T00:37:06.603Z,88.02
2018-11-13T00:39:36.563Z,87.56
2018-11-13T00:42:06.550Z,87.99
2018-11-13T00:44:36.435Z,87.69
2018-11-13T00:47:06.376Z,88.41
2018-11-13T00:49:36.247Z,88.22
2018-11-13T00:52:06.630Z,88.08
2018-11-13T00:54:36.455Z,88.31
2018-11-13T00:57:07.285Z,87.97
2018-11-13T00:59:37.372Z,87.87
2018-11-13T01:02:07.476Z,88.29
2018-11-13T01:04:37.317Z,88.51
2018-11-13T01:07:07.444Z,88.69
2018-11-13T01:09:37.489Z,89.44
2018-11-13T01:12:07.526Z,89.37
2018-11-13T01:14:37.549Z,90.15
2018-11-13T01:17:07.457Z,90.18
2018-11-13T01:19:37.302Z,91.07
2018-11-13T01:22:08.565Z,90.16
2018-11-13T01:24:38.427Z,90.56
2018-11-13T01:27:08.456Z,89.71
2018-11-13T01:29:38.423Z,90.15
2018-11-13T01:32:08.397Z,90.20
2018-11-13T01:34:38.180Z,90.14
2018-11-13T01:37:08.124Z,90.03
2018-11-13T01:39:38.030Z,90.06
2018-11-13T01:42:07.973Z,89.99
2018-11-13T01:44:37.942Z,88.62
2018-11-13T01:47:08.172Z,88.79
2018-11-13T01:49:38.387Z,88.76
2018-11-13T01:52:08.230Z,88.47
2018-11-13T01:54:38.079Z,88.59
2018-11-13T01:57:08.113Z,90.15
2018-11-13T01:59:38.049Z,89.40
2018-11-13T02:02:08.039Z,89.78
2018-11-13T02:04:38.603Z,89.03
2018-11-13T02:07:08.552Z,90.02
2018-11-13T02:09:38.420Z,90.48
2018-11-13T02:12:08.452Z,90.35
2018-11-13T02:14:38.357Z,90.15
2018-11-13T02:17:08.395Z,89.90
2018-11-13T02:19:38.233Z,90.31
2018-11-13T02:22:08.191Z,89.57
2018-11-13T02:24:38.207Z,88.99
2018-11-13T02:27:08.150Z,88.64
2018-11-13T02:29:37.957Z,88.90
2018-11-13T02:32:08.038Z,88.54
2018-11-13T02:34:37.948Z,89.79
2018-11-13T02:37:07.992Z,89.76
2018-11-13T02:39:37.926Z,90.58
2018-11-13T02:42:07.897Z,90.33
2018-11-13T02:44:37.711Z,89.54
2018-11-13T02:47:07.592Z,88.76
2018-11-13T02:49:37.570Z,88.67
2018-11-13T02:52:07.523Z,88.44
2018-11-13T02:54:37.449Z,88.73
2018-11-13T02:57:07.389Z,89.94
2018-11-13T02:59:37.280Z,90.17
2018-11-13T03:02:08.151Z,90.19
2018-11-13T03:04:37.955Z,89.75
2018-11-13T03:07:07.809Z,90.90
2018-11-13T03:09:37.649Z,90.60
2018-11-13T03:12:07.673Z,89.71
2018-11-13T03:14:37.537Z,90.08
2018-11-13T03:17:07.679Z,90.06
2018-11-13T03:19:37.443Z,90.14
2018-11-13T03:22:07.276Z,89.58
2018-11-13T03:24:37.210Z,89.55
2018-11-13T03:27:07.156Z,88.99
2018-11-13T03:29:36.929Z,89.29
2018-11-13T03:32:06.928Z,89.23
2018-11-13T03:34:36.803Z,90.38
2018-11-13T03:37:06.908Z,90.28
2018-11-13T03:39:36.867Z,89.54
2018-11-13T03:42:07.516Z,89.89
2018-11-13T03:44:37.347Z,89.58
2018-11-13T03:47:07.364Z,89.79
2018-11-13T03:49:37.274Z,89.67
2018-11-13T03:52:07.171Z,90.35
2018-11-13T03:54:37.143Z,89.44
2018-11-13T03:57:07.097Z,88.62
2018-11-13T03:59:37.105Z,89.72
2018-11-13T04:02:07.160Z,89.99
2018-11-13T04:04:37.013Z,89.32
2018-11-13T04:07:07.052Z,89.27
2018-11-13T04:09:36.980Z,89.39
2018-11-13T04:12:07.003Z,89.45
2018-11-13T04:14:36.837Z,89.05
2018-11-13T04:17:07.496Z,88.61
2018-11-13T04:19:37.489Z,88.74
2018-11-13T04:22:07.584Z,89.27
2018-11-13T04:24:37.939Z,89.23
2018-11-13T04:27:07.893Z,88.98
2018-11-13T04:29:37.845Z,88.85
2018-11-13T04:32:07.823Z,88.98
2018-11-13T04:34:37.800Z,88.71
2018-11-13T04:37:07.816Z,87.95
2018-11-13T04:39:37.713Z,88.75
2018-11-13T04:42:08.126Z,88.71
2018-11-13T04:44:38.100Z,88.58
2018-11-13T04:47:07.988Z,88.38
2018-11-13T04:49:37.844Z,88.33
2018-11-13T04:52:07.841Z,88.07
2018-11-13T04:54:37.809Z,88.18
2018-11-13T04:57:08.104Z,88.17
2018-11-13T04:59:38.059Z,87.53
2018-11-13T05:02:07.980Z,88.17
2018-11-13T05:04:38.060Z,88.28
2018-11-13T05:07:08.061Z,88.18
2018-11-13T05:09:38.036Z,88.38
2018-11-13T05:12:07.955Z,88.92
2018-11-13T05:14:37.883Z,88.60
2018-11-13T05:17:07.927Z,87.70
2018-11-13T05:19:37.915Z,87.72
2018-11-13T05:22:08.168Z,87.67
2018-11-13T05:24:38.067Z,87.20
2018-11-13T05:27:08.048Z,87.04
2018-11-13T05:29:37.955Z,87.49
2018-11-13T05:32:07.905Z,87.36
2018-11-13T05:34:38.280Z,86.60
2018-11-13T05:37:08.264Z,87.10
2018-11-13T05:39:38.219Z,87.40
2018-11-13T05:42:08.253Z,87.02
2018-11-13T05:44:38.257Z,86.81
2018-11-13T05:47:08.094Z,86.82
2018-11-13T05:49:37.896Z,86.68
2018-11-13T05:52:07.883Z,86.54
2018-11-13T05:54:37.859Z,86.32
2018-11-13T05:57:07.891Z,86.10
2018-11-13T05:59:38.005Z,86.40
2018-11-13T06:02:08.082Z,86.16
2018-11-13T06:04:38.035Z,85.77
2018-11-13T06:07:08.005Z,85.78
2018-11-13T06:09:38.016Z,86.23
2018-11-13T06:12:07.951Z,85.89
2018-11-13T06:14:37.873Z,85.92
2018-11-13T06:17:07.895Z,86.28
2018-11-13T06:19:38.509Z,86.03
2018-11-13T06:22:08.509Z,86.01
2018-11-13T06:24:38.350Z,85.99
2018-11-13T06:27:08.738Z,86.40
2018-11-13T06:29:38.766Z,86.30
2018-11-13T06:32:09.956Z,86.30
2018-11-13T06:34:40.256Z,85.73
2018-11-13T06:37:10.189Z,86.13
2018-11-13T06:39:40.430Z,86.04
2018-11-13T06:42:10.412Z,85.89
2018-11-13T06:44:40.381Z,85.72
2018-11-13T06:47:10.332Z,86.19
2018-11-13T06:49:40.486Z,85.69
2018-11-13T06:52:10.403Z,85.58
2018-11-13T06:55:08.057Z,85.83
2018-11-13T06:57:38.004Z,85.75
2018-11-13T07:00:09.948Z,85.77
2018-11-13T07:02:41.127Z,85.71
2018-11-13T07:05:14.749Z,85.71
2018-11-13T07:07:45.075Z,85.83
2018-11-13T07:10:20.816Z,85.68
2018-11-13T07:12:51.549Z,85.25
2018-11-13T07:15:24.087Z,85.59
2018-11-13T07:17:55.367Z,85.72
2018-11-13T07:20:26.318Z,85.58
2018-11-13T07:22:56.248Z,85.22
2018-11-13T07:25:26.655Z,85.25
2018-11-13T07:27:56.693Z,85.36
2018-11-13T07:30:27.256Z,85.20
2018-11-13T07:32:57.174Z,84.98
2018-11-13T07:35:27.375Z,84.65
2018-11-13T07:38:00.214Z,84.91
2018-11-13T07:40:33.241Z,84.42
2018-11-13T07:43:03.336Z,84.56
2018-11-13T07:45:33.256Z,84.41
2018-11-13T07:48:03.288Z,84.39
2018-11-13T07:50:33.298Z,84.22
2018-11-13T07:53:03.195Z,84.33
2018-11-13T07:55:33.383Z,84.08
2018-11-13T07:58:03.316Z,83.80
2018-11-13T08:00:34.329Z,83.18
2018-11-13T08:03:29.189Z,83.99
2018-11-13T08:05:59.477Z,83.70
2018-11-13T08:08:29.436Z,83.43
2018-11-13T08:11:00.184Z,83.67
2018-11-13T08:13:30.226Z,83.33
2018-11-13T08:16:00.113Z,83.16
2018-11-13T08:18:29.993Z,83.09
2018-11-13T08:21:00.077Z,83.10
2018-11-13T08:23:30.028Z,83.54
2018-11-13T08:26:00.081Z,83.00
2018-11-13T08:28:30.062Z,83.41
2018-11-13T08:31:00.121Z,83.42
2018-11-13T08:36:57.381Z,83.05
2018-11-13T08:39:27.317Z,83.07
2018-11-13T08:41:57.365Z,83.24
2018-11-13T08:44:27.240Z,82.83
2018-11-13T08:46:57.437Z,82.91
2018-11-13T08:49:27.850Z,82.98
2018-11-13T08:51:58.032Z,82.60
2018-11-13T08:54:28.007Z,82.95
2018-11-13T08:56:58.587Z,81.48
2018-11-13T08:59:28.964Z,81.94
2018-11-13T09:01:59.207Z,81.74
2018-11-13T09:04:30.052Z,81.96
2018-11-13T09:07:00.011Z,82.16
2018-11-13T09:09:30.287Z,82.11
2018-11-13T09:12:00.512Z,81.74
2018-11-13T09:14:30.357Z,82.48
2018-11-13T09:17:00.472Z,82.09
2018-11-13T09:19:30.464Z,81.43
2018-11-13T09:22:00.333Z,80.64
2018-11-13T09:24:30.393Z,81.02
2018-11-13T09:27:00.455Z,80.73
2018-11-13T09:29:30.332Z,80.94
2018-11-13T09:32:00.910Z,80.89
2018-11-13T09:34:31.990Z,81.04
2018-11-13T09:37:01.997Z,81.34
2018-11-13T09:39:32.077Z,80.82
2018-11-13T09:42:02.154Z,81.15
2018-11-13T09:44:32.257Z,80.70
2018-11-13T09:47:02.069Z,80.96
2018-11-13T09:49:32.183Z,80.51
2018-11-13T09:52:02.114Z,80.75
2018-11-13T09:54:32.208Z,80.17
2018-11-13T09:57:10.287Z,79.73
2018-11-13T09:59:40.560Z,79.84
2018-11-13T10:02:11.009Z,79.70
2018-11-13T10:04:41.677Z,79.72
2018-11-13T10:07:10.867Z,79.57
2018-11-13T10:09:41.765Z,80.21
2018-11-13T10:12:13.159Z,79.72
2018-11-13T10:14:48.972Z,79.81
2018-11-13T10:17:19.023Z,79.64
2018-11-13T10:19:48.928Z,79.74
2018-11-13T10:22:18.873Z,79.26
2018-11-13T10:24:48.723Z,78.61
2018-11-13T10:27:18.696Z,79.52
2018-11-13T10:29:48.973Z,79.05
2018-11-13T10:32:19.275Z,78.40
2018-11-13T10:34:49.530Z,79.02
2018-11-13T10:37:19.540Z,78.93
2018-11-13T10:39:50.125Z,78.91
2018-11-13T10:42:20.194Z,78.19
2018-11-13T10:44:50.123Z,77.66
2018-11-13T10:47:38.552Z,76.56
2018-11-13T10:50:13.423Z,76.77
2018-11-13T10:52:44.191Z,76.53
2018-11-13T10:55:14.450Z,75.98
2018-11-13T10:57:45.796Z,75.86
2018-11-13T11:00:22.702Z,75.58
2018-11-13T11:02:57.688Z,75.00
2018-11-13T11:05:28.876Z,75.10
2018-11-13T11:07:59.367Z,74.68
2018-11-13T11:10:29.705Z,75.57
2018-11-13T11:12:59.818Z,74.75
2018-11-13T11:15:30.515Z,75.01
2018-11-13T11:18:01.915Z,74.03
2018-11-13T11:20:31.808Z,73.58
2018-11-13T11:23:01.781Z,74.56
2018-11-13T11:25:32.102Z,73.89
2018-11-13T11:31:16.821Z,74.73
2018-11-13T11:33:47.367Z,73.58
2018-11-13T11:36:36.965Z,73.74
2018-11-13T11:39:13.332Z,73.59
2018-11-13T11:41:43.398Z,72.93
2018-11-13T11:44:13.381Z,72.88
2018-11-13T11:46:58.226Z,72.96
2018-11-13T11:49:28.123Z,72.86
2018-11-13T11:51:58.092Z,72.53
2018-11-13T11:54:28.258Z,71.44
2018-11-13T11:56:58.048Z,71.72
2018-11-13T11:59:28.722Z,73.04
2018-11-13T12:01:59.031Z,72.33
2018-11-13T12:04:29.104Z,71.67
2018-11-13T12:09:41.540Z,72.01
2018-11-13T12:12:12.456Z,72.00
2018-11-13T12:14:45.523Z,71.08
2018-11-13T12:17:22.488Z,71.20
2018-11-13T12:19:53.815Z,71.56
2018-11-13T12:22:24.183Z,70.26
2018-11-13T12:24:54.501Z,71.10
2018-11-13T12:27:27.747Z,70.34
2018-11-13T12:29:58.257Z,70.76
2018-11-13T12:32:51.281Z,71.81
2018-11-13T12:35:22.860Z,70.86
2018-11-13T12:37:53.236Z,71.14
2018-11-13T12:40:27.400Z,70.32
2018-11-13T12:42:57.582Z,70.60
2018-11-13T12:45:27.511Z,69.76
2018-11-13T12:48:00.353Z,69.27
2018-11-13T12:50:36.051Z,68.55
2018-11-13T12:53:06.078Z,70.33
2018-11-13T12:55:36.152Z,69.35
2018-11-13T12:58:06.258Z,71.62
2018-11-13T13:00:36.266Z,71.03
2018-11-13T13:03:06.581Z,70.83
2018-11-13T13:05:36.724Z,70.19
2018-11-13T13:08:06.851Z,71.83
2018-11-13T13:10:37.537Z,70.87
2018-11-13T13:13:07.542Z,71.75
2018-11-13T13:15:37.674Z,71.04
2018-11-13T13:18:07.727Z,71.82
2018-11-13T13:20:37.836Z,72.07
2018-11-13T13:23:08.415Z,70.93
2018-11-13T13:25:39.222Z,71.20
2018-11-13T13:28:15.223Z,69.62
2018-11-13T13:30:49.707Z,70.15
2018-11-13T13:33:19.701Z,70.22
2018-11-13T13:36:17.431Z,68.50
2018-11-13T13:39:04.673Z,68.44
2018-11-13T13:41:35.106Z,71.17
2018-11-13T13:44:05.192Z,69.24
2018-11-13T13:46:35.811Z,71.20
2018-11-13T13:49:05.968Z,71.79
2018-11-13T13:51:36.064Z,69.19
2018-11-13T13:54:06.819Z,71.22
2018-11-13T13:56:36.701Z,70.53
2018-11-13T13:59:07.637Z,70.78
2018-11-13T14:01:39.232Z,70.81
2018-11-13T14:06:49.235Z,70.38
2018-11-13T14:09:29.289Z,71.16
2018-11-13T14:14:49.153Z,70.09
2018-11-13T14:17:30.761Z,71.05
2018-11-13T14:20:11.204Z,70.66
2018-11-13T14:25:56.720Z,71.18
2018-11-13T14:28:27.568Z,69.44
2018-11-13T14:30:58.722Z,71.11
2018-11-13T14:33:30.089Z,70.90
2018-11-13T14:42:21.315Z,70.41
2018-11-13T14:44:51.472Z,71.07
2018-11-13T14:47:21.840Z,70.09
2018-11-13T14:49:52.197Z,70.97
2018-11-13T14:52:34.431Z,72.00
2018-11-13T14:55:09.662Z,71.14
2018-11-13T15:04:00.704Z,70.15
2018-11-13T15:06:31.080Z,71.17
2018-11-13T15:09:01.276Z,71.61
2018-11-13T15:11:31.849Z,70.32
2018-11-13T15:14:01.925Z,70.97
2018-11-13T15:16:41.181Z,71.01
2018-11-13T15:19:17.098Z,71.22
2018-11-13T15:21:47.177Z,71.10
2018-11-13T15:24:17.250Z,71.82
2018-11-13T15:26:47.357Z,71.68
2018-11-13T15:29:17.638Z,71.86
2018-11-13T15:31:47.645Z,71.46
2018-11-13T15:34:18.752Z,72.10
2018-11-13T15:36:48.805Z,71.67
2018-11-13T15:39:19.123Z,71.80
2018-11-13T15:41:49.307Z,71.48
2018-11-13T15:44:19.739Z,72.96
2018-11-13T15:46:49.784Z,71.73
2018-11-13T15:49:21.971Z,72.52
2018-11-13T15:51:51.954Z,72.65
2018-11-13T15:54:22.072Z,72.57
2018-11-13T15:56:52.438Z,72.31
2018-11-13T15:59:22.784Z,72.36
2018-11-13T16:01:52.873Z,73.39
2018-11-13T16:04:23.460Z,73.45
2018-11-13T16:06:53.483Z,73.59
2018-11-13T16:09:23.803Z,73.01
2018-11-13T16:11:54.188Z,73.50
2018-11-13T16:14:24.160Z,73.52
2018-11-13T16:16:54.209Z,73.51
2018-11-13T16:32:40.802Z,74.18
2018-11-13T16:38:11.896Z,74.38
2018-11-13T16:40:49.866Z,74.22
2018-11-13T16:43:35.652Z,74.85
2018-11-13T16:46:06.248Z,74.37
2018-11-13T16:51:45.844Z,75.01
2018-11-13T16:54:40.183Z,74.65
2018-11-13T16:57:10.572Z,74.79
2018-11-13T16:59:40.746Z,74.97
2018-11-13T17:02:11.430Z,75.05
2018-11-13T17:04:41.162Z,75.42
2018-11-13T17:07:11.424Z,74.81
2018-11-13T17:12:52.594Z,75.63
2018-11-13T17:15:27.789Z,75.69
2018-11-13T17:17:58.780Z,75.21
2018-11-13T17:20:54.148Z,75.65
2018-11-13T17:23:24.499Z,75.57
2018-11-13T17:25:54.755Z,75.29
2018-11-13T17:28:32.830Z,75.65
2018-11-13T17:31:03.028Z,75.50
2018-11-13T17:33:33.716Z,76.56
2018-11-13T17:36:03.800Z,75.99
2018-11-13T17:41:25.288Z,76.21
2018-11-13T17:43:56.528Z,76.16
2018-11-13T17:46:27.712Z,75.96
2018-11-13T17:48:58.055Z,76.50
2018-11-13T17:51:28.847Z,76.13
2018-11-13T17:54:00.635Z,76.53
2018-11-13T17:56:30.807Z,77.09
2018-11-13T18:02:10.267Z,76.20
2018-11-13T18:04:40.803Z,76.34
2018-11-13T18:07:23.306Z,75.96
2018-11-13T18:10:03.345Z,76.04
2018-11-13T18:12:34.208Z,76.82
2018-11-13T18:15:04.793Z,76.85
2018-11-13T18:17:40.004Z,76.84
2018-11-13T18:20:13.507Z,76.63
2018-11-13T18:22:44.105Z,76.76
2018-11-13T18:25:14.116Z,77.97
2018-11-13T18:27:45.606Z,78.10
2018-11-13T18:30:18.985Z,78.00
2018-11-13T18:32:50.220Z,77.98
2018-11-13T18:35:21.690Z,77.83
2018-11-13T18:37:52.627Z,77.52
2018-11-13T18:40:23.702Z,77.67
2018-11-13T18:42:54.581Z,77.81
2018-11-13T18:45:27.976Z,77.68
2018-11-13T18:47:58.397Z,78.16
2018-11-13T18:50:29.744Z,77.66
2018-11-13T18:53:10.847Z,77.94
2018-11-13T18:55:41.345Z,77.69
2018-11-13T18:58:17.630Z,79.00
2018-11-13T19:03:59.893Z,78.84
2018-11-13T19:06:33.955Z,79.26
2018-11-13T19:09:12.801Z,78.57
2018-11-13T19:11:49.204Z,78.45
2018-11-13T19:14:19.351Z,78.47
2018-11-13T19:16:49.557Z,78.04
2018-11-13T19:19:19.742Z,78.30
2018-11-13T19:21:49.935Z,78.29
2018-11-13T19:24:23.558Z,78.11
2018-11-13T19:26:53.688Z,78.39
2018-11-13T19:29:50.329Z,78.76
2018-11-13T19:32:38.289Z,79.16
2018-11-13T19:35:08.465Z,79.37
2018-11-13T19:37:49.243Z,79.46
2018-11-13T19:40:21.372Z,80.57
2018-11-13T19:42:52.780Z,80.11
2018-11-13T19:45:28.784Z,79.25
2018-11-13T19:48:19.571Z,79.54
2018-11-13T19:50:49.757Z,79.86
2018-11-13T19:53:22.225Z,79.82
2018-11-13T19:56:16.516Z,80.51
2018-11-13T19:58:48.005Z,80.05
2018-11-13T20:01:29.992Z,79.85
2018-11-13T20:04:23.244Z,80.05
2018-11-13T20:06:58.777Z,80.29
2018-11-13T20:09:29.010Z,80.28
2018-11-13T20:12:13.163Z,79.82
2018-11-13T20:14:43.801Z,80.25
2018-11-13T20:17:14.081Z,79.45
2018-11-13T20:19:50.444Z,79.74
2018-11-13T20:22:21.832Z,79.53
2018-11-13T20:24:54.700Z,79.41
2018-11-13T20:27:25.819Z,79.98
2018-11-13T20:29:56.669Z,80.70
2018-11-13T20:32:26.826Z,80.58
2018-11-13T20:34:57.559Z,80.73
2018-11-13T20:37:27.774Z,81.09
2018-11-13T20:39:57.880Z,80.93
2018-11-13T20:42:28.245Z,80.32
2018-11-13T20:44:58.887Z,80.16
2018-11-13T20:47:31.987Z,79.61
2018-11-13T20:50:02.730Z,80.01
2018-11-13T20:52:43.500Z,79.66
2018-11-13T20:55:17.980Z,79.69
2018-11-13T20:57:49.867Z,80.41
2018-11-13T21:00:28.429Z,80.01
2018-11-13T21:02:59.389Z,79.84
2018-11-13T21:05:29.726Z,79.71
2018-11-13T21:08:09.230Z,79.89
2018-11-13T21:10:42.080Z,80.42
2018-11-13T21:13:12.308Z,80.11
2018-11-13T21:15:43.467Z,80.51
2018-11-13T21:18:13.872Z,80.14
2018-11-13T21:20:43.916Z,80.45
2018-11-13T21:26:23.585Z,80.21
2018-11-13T21:28:53.612Z,80.07
2018-11-13T21:31:23.711Z,80.76
2018-11-13T21:33:55.476Z,80.12
2018-11-13T21:36:25.927Z,80.18
2018-11-13T21:38:56.838Z,81.02
2018-11-13T21:41:29.142Z,80.67
2018-11-13T21:43:59.164Z,80.63
2018-11-13T21:46:29.180Z,82.04
2018-11-13T21:48:59.292Z,81.59
2018-11-13T21:51:30.296Z,81.34
2018-11-13T21:54:00.473Z,80.65
2018-11-13T21:56:30.619Z,81.15
2018-11-13T21:59:02.246Z,80.99
2018-11-13T22:01:32.710Z,81.48
2018-11-13T22:04:03.013Z,81.44
2018-11-13T22:06:33.369Z,80.89
2018-11-13T22:09:04.486Z,80.72
2018-11-13T22:11:34.696Z,81.83
2018-11-13T22:14:05.623Z,81.44
2018-11-13T22:16:35.735Z,81.75
2018-11-13T22:19:05.920Z,81.50
2018-11-13T22:21:36.190Z,81.07
2018-11-13T22:24:08.616Z,81.55
2018-11-13T22:26:38.762Z,81.12
2018-11-13T22:29:08.983Z,80.87
2018-11-13T22:31:39.021Z,81.66
2018-11-13T22:34:09.173Z,81.18
2018-11-13T22:36:39.365Z,80.97
2018-11-13T22:39:10.041Z,81.12
2018-11-13T22:41:40.230Z,81.76
2018-11-13T22:44:10.717Z,81.50
2018-11-13T22:46:40.905Z,81.36
2018-11-13T22:49:10.809Z,80.69
2018-11-13T22:51:40.801Z,80.96
2018-11-13T22:54:10.934Z,80.89
2018-11-13T22:56:41.301Z,80.78
2018-11-13T22:59:11.452Z,81.58
2018-11-13T23:01:41.417Z,81.35
2018-11-13T23:04:11.886Z,81.66
2018-11-13T23:06:41.909Z,81.55
2018-11-13T23:09:13.449Z,81.89
2018-11-13T23:11:43.787Z,81.24
2018-11-13T23:14:14.014Z,80.94
2018-11-13T23:16:44.252Z,81.29
2018-11-13T23:19:14.352Z,81.69
2018-11-13T23:21:44.402Z,81.45
2018-11-13T23:24:14.852Z,81.33
2018-11-13T23:26:44.817Z,81.29
2018-11-13T23:29:15.194Z,81.80
2018-11-13T23:31:46.052Z,81.24
2018-11-13T23:34:16.046Z,81.08
2018-11-13T23:36:46.012Z,81.32
2018-11-13T23:39:16.149Z,80.91
2018-11-13T23:41:46.106Z,82.01
2018-11-13T23:44:16.166Z,81.28
2018-11-13T23:46:46.160Z,82.05
2018-11-13T23:49:16.190Z,81.93
2018-11-13T23:51:46.309Z,81.67
2018-11-13T23:54:16.835Z,81.53
2018-11-13T23:56:46.839Z,81.51
2018-11-13T23:59:17.057Z,81.80
